createdAt,value
2022-09-28T00:01:16.716Z,13.52
2022-09-28T00:03:44.695Z,13.63
2022-09-28T00:06:14.480Z,13.56
2022-09-28T00:08:40.926Z,13.51
2022-09-28T00:11:10.527Z,13.62
2022-09-28T00:13:36.966Z,13.49
2022-09-28T00:16:15.330Z,13.54
2022-09-28T00:18:42.023Z,13.47
2022-09-28T00:21:12.466Z,13.40
2022-09-28T00:23:40.452Z,13.35
2022-09-28T00:26:06.910Z,13.31
2022-09-28T00:28:33.367Z,13.30
2022-09-28T00:30:59.797Z,13.34
2022-09-28T00:33:26.288Z,13.60
2022-09-28T00:35:57.450Z,13.43
2022-09-28T00:38:28.925Z,13.47
2022-09-28T00:40:55.513Z,13.69
2022-09-28T00:43:23.651Z,13.60
2022-09-28T00:46:02.618Z,13.41
2022-09-28T00:48:35.848Z,13.82
2022-09-28T00:51:09.806Z,14.06
2022-09-28T00:53:42.448Z,14.21
2022-09-28T00:56:18.350Z,14.09
2022-09-28T00:58:50.137Z,13.47
2022-09-28T01:01:17.164Z,13.82
2022-09-28T01:03:44.977Z,13.77
2022-09-28T01:06:18.441Z,13.69
2022-09-28T01:08:47.650Z,13.64
2022-09-28T01:11:14.087Z,13.23
2022-09-28T01:13:42.495Z,12.89
2022-09-28T01:16:45.958Z,12.82
2022-09-28T01:19:43.499Z,12.85
2022-09-28T01:22:27.954Z,12.63
2022-09-28T01:25:12.354Z,12.65
2022-09-28T01:27:47.411Z,12.74
2022-09-28T01:30:19.281Z,12.51
2022-09-28T01:32:57.587Z,12.79
2022-09-28T01:35:40.344Z,12.55
2022-09-28T01:38:17.935Z,12.15
2022-09-28T01:40:48.030Z,12.00
2022-09-28T01:43:25.059Z,11.95
2022-09-28T01:45:59.862Z,11.86
2022-09-28T01:48:55.033Z,11.78
2022-09-28T01:52:10.588Z,11.28
2022-09-28T01:54:53.374Z,11.37
2022-09-28T01:57:34.768Z,11.29
2022-09-28T02:00:06.814Z,11.27
2022-09-28T02:02:41.724Z,11.17
2022-09-28T02:05:15.071Z,11.08
2022-09-28T02:07:56.636Z,11.28
2022-09-28T02:10:30.848Z,10.95
2022-09-28T02:13:16.894Z,11.27
2022-09-28T02:15:53.643Z,11.28
2022-09-28T02:18:20.187Z,11.09
2022-09-28T02:20:56.717Z,11.56
2022-09-28T02:23:28.287Z,11.68
2022-09-28T02:26:03.512Z,11.33
2022-09-28T02:28:30.256Z,11.02
2022-09-28T02:30:56.706Z,10.59
2022-09-28T02:33:43.769Z,10.65
2022-09-28T02:36:11.396Z,10.64
2022-09-28T02:38:38.355Z,10.71
2022-09-28T02:41:24.252Z,10.63
2022-09-28T02:43:59.738Z,11.23
2022-09-28T02:46:46.807Z,11.01
2022-09-28T02:49:25.509Z,11.26
2022-09-28T02:52:03.491Z,11.32
2022-09-28T02:54:51.592Z,11.26
2022-09-28T02:57:23.956Z,11.44
2022-09-28T03:00:11.141Z,11.53
2022-09-28T03:02:51.948Z,11.21
2022-09-28T03:05:36.888Z,11.68
2022-09-28T03:08:10.210Z,11.68
2022-09-28T03:10:55.859Z,11.63
2022-09-28T03:13:23.568Z,12.07
2022-09-28T03:15:50.063Z,11.97
2022-09-28T03:18:16.678Z,11.96
2022-09-28T03:20:43.228Z,12.10
2022-09-28T03:23:25.597Z,12.21
2022-09-28T03:25:52.087Z,12.27
2022-09-28T03:28:18.538Z,11.89
2022-09-28T03:30:45.052Z,12.05
2022-09-28T03:33:11.481Z,12.12
2022-09-28T03:35:37.931Z,12.25
2022-09-28T03:38:04.507Z,12.47
2022-09-28T03:40:30.986Z,12.11
2022-09-28T03:42:57.498Z,12.41
2022-09-28T03:45:24.023Z,12.60
2022-09-28T03:47:50.524Z,12.46
2022-09-28T03:50:16.982Z,12.75
2022-09-28T03:52:43.443Z,12.88
2022-09-28T03:55:10.274Z,12.82
2022-09-28T03:57:37.236Z,12.79
2022-09-28T04:00:05.295Z,12.85
2022-09-28T04:02:31.948Z,12.79
2022-09-28T04:04:58.433Z,12.76
2022-09-28T04:07:27.955Z,12.79
2022-09-28T04:09:57.441Z,12.77
2022-09-28T04:12:24.072Z,12.87
2022-09-28T04:14:50.633Z,12.83
2022-09-28T04:17:17.086Z,12.97
2022-09-28T04:19:43.564Z,13.16
2022-09-28T04:22:10.086Z,13.15
2022-09-28T04:24:36.522Z,12.79
2022-09-28T04:27:03.044Z,12.86
2022-09-28T04:29:29.487Z,12.63
2022-09-28T04:31:56.343Z,12.67
2022-09-28T04:34:23.358Z,12.34
2022-09-28T04:36:49.808Z,12.15
2022-09-28T04:39:18.076Z,11.83
2022-09-28T04:41:47.721Z,12.21
2022-09-28T04:44:14.204Z,12.75
2022-09-28T04:46:40.729Z,12.15
2022-09-28T04:49:07.187Z,12.49
2022-09-28T04:51:33.643Z,12.82
2022-09-28T04:54:00.081Z,12.50
2022-09-28T04:56:26.527Z,12.56
2022-09-28T04:58:53.095Z,12.58
2022-09-28T05:01:20.463Z,12.77
2022-09-28T05:03:46.949Z,12.64
2022-09-28T05:06:14.978Z,13.14
2022-09-28T05:08:42.827Z,13.51
2022-09-28T05:11:12.180Z,13.76
2022-09-28T05:13:44.675Z,13.79
2022-09-28T05:16:13.477Z,13.92
2022-09-28T05:18:39.962Z,13.66
2022-09-28T05:21:10.920Z,13.64
2022-09-28T05:23:37.378Z,13.61
2022-09-28T05:26:03.936Z,13.56
2022-09-28T05:28:32.248Z,13.80
2022-09-28T05:31:00.323Z,13.57
2022-09-28T05:33:27.941Z,13.61
2022-09-28T05:35:57.866Z,13.69
2022-09-28T05:38:27.296Z,13.30
2022-09-28T05:40:53.843Z,13.32
2022-09-28T05:43:20.362Z,13.37
2022-09-28T05:45:49.352Z,13.34
2022-09-28T05:48:18.074Z,13.07
2022-09-28T05:50:44.522Z,13.19
2022-09-28T05:53:11.074Z,13.13
2022-09-28T05:55:37.551Z,13.48
2022-09-28T05:58:06.207Z,13.34
2022-09-28T06:00:34.359Z,13.83
2022-09-28T06:03:08.895Z,13.64
2022-09-28T06:05:37.269Z,13.67
2022-09-28T06:08:05.549Z,13.66
2022-09-28T06:10:33.218Z,13.97
2022-09-28T06:13:00.831Z,13.75
2022-09-28T06:15:29.477Z,13.87
2022-09-28T06:18:00.722Z,13.63
2022-09-28T06:20:30.346Z,13.86
2022-09-28T06:22:57.035Z,13.91
2022-09-28T06:25:24.252Z,13.69
2022-09-28T06:27:58.191Z,13.82
2022-09-28T06:30:26.355Z,13.47
2022-09-28T06:32:55.055Z,13.89
2022-09-28T06:35:22.187Z,13.46
2022-09-28T06:37:48.787Z,13.16
2022-09-28T06:40:15.365Z,13.11
2022-09-28T06:42:41.862Z,12.98
2022-09-28T06:45:08.770Z,12.91
2022-09-28T06:47:35.207Z,13.14
2022-09-28T06:50:01.687Z,13.24
2022-09-28T06:52:28.134Z,13.48
2022-09-28T06:54:54.572Z,13.02
2022-09-28T06:57:21.062Z,13.13
2022-09-28T06:59:47.510Z,13.34
2022-09-28T07:02:14.007Z,13.52
2022-09-28T07:04:42.069Z,13.56
2022-09-28T07:07:12.033Z,13.62
2022-09-28T07:09:43.699Z,13.91
2022-09-28T07:12:13.073Z,14.14
2022-09-28T07:14:47.912Z,14.29
2022-09-28T07:17:15.122Z,14.39
2022-09-28T07:19:42.087Z,14.55
2022-09-28T07:22:08.553Z,14.63
2022-09-28T07:24:34.988Z,14.74
2022-09-28T07:27:01.439Z,14.82
2022-09-28T07:29:27.940Z,14.95
2022-09-28T07:31:54.411Z,14.93
2022-09-28T07:34:23.378Z,15.23
2022-09-28T07:36:49.838Z,15.21
2022-09-28T07:39:16.300Z,15.16
2022-09-28T07:41:42.753Z,15.25
2022-09-28T07:44:09.287Z,15.17
2022-09-28T07:46:36.735Z,15.30
2022-09-28T07:49:05.772Z,15.15
2022-09-28T07:51:35.190Z,15.39
2022-09-28T07:54:01.775Z,15.29
2022-09-28T07:56:28.235Z,15.32
2022-09-28T07:58:54.692Z,15.16
2022-09-28T08:01:21.226Z,14.89
2022-09-28T08:03:47.687Z,15.15
2022-09-28T08:06:16.509Z,15.21
2022-09-28T08:08:43.727Z,15.24
2022-09-28T08:11:13.475Z,15.30
2022-09-28T08:13:40.683Z,15.19
2022-09-28T08:16:07.470Z,15.00
2022-09-28T08:18:35.215Z,15.25
2022-09-28T08:21:05.772Z,15.03
2022-09-28T08:23:32.226Z,15.12
2022-09-28T08:25:58.694Z,15.33
2022-09-28T08:28:25.355Z,15.53
2022-09-28T08:30:52.373Z,15.41
2022-09-28T08:33:19.794Z,15.26
2022-09-28T08:35:46.339Z,15.38
2022-09-28T08:38:13.187Z,15.32
2022-09-28T08:41:06.491Z,15.29
2022-09-28T08:43:51.873Z,15.20
2022-09-28T08:46:25.183Z,15.15
2022-09-28T08:49:23.755Z,15.17
2022-09-28T08:52:06.181Z,15.00
2022-09-28T08:54:47.776Z,15.13
2022-09-28T08:57:50.807Z,15.19
2022-09-28T09:00:32.053Z,15.35
2022-09-28T09:02:59.200Z,15.57
2022-09-28T09:06:02.364Z,15.51
2022-09-28T09:09:00.618Z,15.29
2022-09-28T09:11:45.535Z,15.66
2022-09-28T09:14:57.474Z,15.53
2022-09-28T09:18:08.830Z,15.72
2022-09-28T09:20:50.458Z,15.65
2022-09-28T09:23:31.720Z,15.53
2022-09-28T09:26:29.908Z,15.55
2022-09-28T09:29:06.320Z,15.54
2022-09-28T09:31:41.731Z,15.80
2022-09-28T09:34:25.601Z,15.79
2022-09-28T09:37:21.141Z,15.70
2022-09-28T09:40:28.097Z,15.76
2022-09-28T09:43:04.867Z,15.69
2022-09-28T09:45:42.476Z,15.78
2022-09-28T09:48:26.912Z,15.82
2022-09-28T09:51:02.939Z,15.83
2022-09-28T09:53:37.770Z,16.04
2022-09-28T09:56:19.154Z,15.99
2022-09-28T09:58:53.405Z,15.94
2022-09-28T10:01:30.429Z,15.96
2022-09-28T10:03:58.881Z,15.91
2022-09-28T10:06:32.770Z,15.88
2022-09-28T10:09:09.410Z,15.96
2022-09-28T10:11:44.663Z,15.75
2022-09-28T10:14:17.425Z,15.67
2022-09-28T10:16:46.429Z,15.74
2022-09-28T10:19:15.008Z,15.77
2022-09-28T10:21:43.262Z,15.73
2022-09-28T10:24:29.856Z,15.86
2022-09-28T10:27:05.389Z,16.19
2022-09-28T10:29:43.039Z,16.00
2022-09-28T10:32:22.532Z,15.93
2022-09-28T10:34:51.038Z,15.90
2022-09-28T10:37:18.416Z,16.06
2022-09-28T10:39:53.780Z,16.04
2022-09-28T10:42:26.465Z,16.10
2022-09-28T10:45:14.430Z,16.17
2022-09-28T10:47:44.634Z,16.16
2022-09-28T10:50:27.267Z,16.16
2022-09-28T10:52:53.952Z,16.19
2022-09-28T10:55:26.520Z,16.32
2022-09-28T10:57:53.821Z,16.46
2022-09-28T11:00:49.621Z,16.50
2022-09-28T11:03:27.914Z,16.67
2022-09-28T11:05:58.480Z,16.70
2022-09-28T11:08:32.588Z,16.54
2022-09-28T11:11:05.296Z,16.69
2022-09-28T11:13:39.740Z,16.55
2022-09-28T11:16:06.769Z,16.60
2022-09-28T11:18:33.768Z,16.74
2022-09-28T11:21:23.760Z,16.77
2022-09-28T11:24:19.240Z,16.58
2022-09-28T11:26:50.140Z,16.62
2022-09-28T11:29:51.324Z,16.38
2022-09-28T11:32:17.980Z,16.12
2022-09-28T11:34:59.244Z,16.11
2022-09-28T11:37:40.034Z,15.94
2022-09-28T11:40:44.532Z,15.79
2022-09-28T11:43:32.511Z,15.69
2022-09-28T11:46:16.022Z,15.77
2022-09-28T11:48:51.842Z,15.74
2022-09-28T11:51:25.880Z,15.87
2022-09-28T11:54:03.400Z,15.68
2022-09-28T11:56:43.920Z,15.79
2022-09-28T11:59:34.477Z,15.81
2022-09-28T12:02:16.497Z,16.02
2022-09-28T12:04:48.722Z,16.09
2022-09-28T12:07:34.257Z,16.22
2022-09-28T12:10:16.713Z,16.24
2022-09-28T12:12:59.107Z,16.22
2022-09-28T12:16:06.902Z,16.07
2022-09-28T12:18:32.730Z,16.00
2022-09-28T12:21:24.045Z,16.11
2022-09-28T12:23:56.825Z,15.88
2022-09-28T12:26:25.950Z,15.99
2022-09-28T12:29:00.912Z,16.14
2022-09-28T12:31:45.558Z,16.29
2022-09-28T12:34:12.058Z,16.39
2022-09-28T12:37:10.759Z,16.48
2022-09-28T12:40:05.590Z,16.61
2022-09-28T12:43:08.741Z,16.80
2022-09-28T12:46:13.381Z,16.74
2022-09-28T12:52:08.617Z,16.69
2022-09-28T12:54:37.722Z,16.48
2022-09-28T12:57:22.784Z,16.54
2022-09-28T13:00:04.756Z,16.39
2022-09-28T13:02:56.039Z,16.85
2022-09-28T13:06:08.689Z,16.62
2022-09-28T13:08:54.059Z,16.35
2022-09-28T13:11:48.399Z,16.43
2022-09-28T13:14:57.876Z,16.51
2022-09-28T13:17:33.422Z,16.50
2022-09-28T13:20:17.613Z,16.76
2022-09-28T13:23:16.144Z,16.73
2022-09-28T13:26:04.457Z,16.86
2022-09-28T13:28:34.026Z,16.75
2022-09-28T13:31:03.719Z,16.58
2022-09-28T13:33:38.592Z,16.76
2022-09-28T13:36:48.029Z,16.83
2022-09-28T13:39:38.418Z,16.68
2022-09-28T13:42:09.336Z,16.78
2022-09-28T13:44:52.822Z,16.79
2022-09-28T13:47:31.547Z,16.85
2022-09-28T13:50:22.024Z,16.79
2022-09-28T13:53:06.754Z,16.68
2022-09-28T13:55:55.968Z,16.60
2022-09-28T13:58:33.456Z,16.49
2022-09-28T14:01:14.377Z,16.35
2022-09-28T14:04:12.179Z,16.20
2022-09-28T14:06:55.787Z,16.54
2022-09-28T14:09:26.392Z,16.16
2022-09-28T14:11:59.787Z,16.18
2022-09-28T14:14:50.620Z,16.11
2022-09-28T14:17:23.024Z,16.29
2022-09-28T14:19:56.152Z,15.99
2022-09-28T14:22:56.954Z,16.01
2022-09-28T14:25:30.064Z,16.21
2022-09-28T14:28:17.819Z,16.38
2022-09-28T14:30:54.065Z,16.50
2022-09-28T14:33:20.661Z,16.24
2022-09-28T14:35:56.507Z,16.17
2022-09-28T14:38:29.932Z,16.14
2022-09-28T14:41:01.076Z,16.10
2022-09-28T14:43:47.576Z,16.26
2022-09-28T14:46:14.006Z,16.27
2022-09-28T14:48:52.650Z,16.22
2022-09-28T14:51:25.084Z,16.30
2022-09-28T14:53:53.574Z,16.44
2022-09-28T14:56:20.991Z,16.41
2022-09-28T14:58:55.688Z,16.42
2022-09-28T15:01:24.745Z,16.32
2022-09-28T15:03:55.942Z,16.29
2022-09-28T15:06:24.064Z,16.60
2022-09-28T15:08:50.653Z,16.29
2022-09-28T15:11:22.488Z,16.54
2022-09-28T15:13:51.576Z,16.45
2022-09-28T15:16:22.478Z,16.32
2022-09-28T15:18:48.934Z,16.17
2022-09-28T15:21:15.519Z,15.84
2022-09-28T15:23:44.245Z,15.60
2022-09-28T15:26:32.559Z,15.39
2022-09-28T15:29:00.004Z,14.93
2022-09-28T15:31:34.629Z,14.90
2022-09-28T15:34:01.104Z,14.79
2022-09-28T15:36:37.238Z,14.47
2022-09-28T15:39:12.250Z,14.49
2022-09-28T15:41:39.557Z,14.61
2022-09-28T15:44:30.546Z,14.68
2022-09-28T15:47:08.735Z,15.13
2022-09-28T15:49:41.327Z,15.41
2022-09-28T15:52:24.678Z,15.44
2022-09-28T15:54:52.191Z,15.66
2022-09-28T15:57:38.348Z,16.13
2022-09-28T16:00:21.607Z,15.64
2022-09-28T16:03:19.004Z,16.14
2022-09-28T16:05:52.204Z,16.54
2022-09-28T16:08:30.739Z,16.94
2022-09-28T16:11:12.870Z,17.12
2022-09-28T16:13:51.391Z,17.34
2022-09-28T16:16:18.354Z,17.30
2022-09-28T16:18:50.999Z,17.42
2022-09-28T16:21:32.871Z,17.59
2022-09-28T16:23:59.514Z,17.51
2022-09-28T16:26:38.196Z,17.27
2022-09-28T16:29:24.788Z,16.67
2022-09-28T16:31:51.876Z,16.97
2022-09-28T16:34:23.547Z,16.68
2022-09-28T16:36:50.395Z,16.39
2022-09-28T16:39:18.571Z,15.78
2022-09-28T16:42:00.327Z,16.07
2022-09-28T16:44:27.768Z,15.92
2022-09-28T16:46:58.047Z,15.54
2022-09-28T16:49:25.400Z,15.51
2022-09-28T16:51:52.297Z,15.23
2022-09-28T16:54:22.012Z,14.84
2022-09-28T16:56:48.461Z,14.65
2022-09-28T16:59:14.976Z,14.92
2022-09-28T17:01:41.535Z,14.42
2022-09-28T17:04:08.037Z,14.35
2022-09-28T17:06:34.540Z,14.18
2022-09-28T17:09:00.983Z,14.25
2022-09-28T17:11:27.417Z,14.20
2022-09-28T17:13:53.841Z,14.37
2022-09-28T17:16:43.597Z,14.41
2022-09-28T17:19:20.074Z,14.02
2022-09-28T17:21:47.176Z,14.14
2022-09-28T17:24:13.640Z,14.48
2022-09-28T17:26:41.027Z,14.19
2022-09-28T17:29:07.557Z,14.38
2022-09-28T17:31:34.370Z,14.34
2022-09-28T17:34:00.818Z,14.29
2022-09-28T17:36:27.290Z,14.59
2022-09-28T17:38:53.720Z,14.31
2022-09-28T17:41:21.058Z,14.44
2022-09-28T17:43:49.076Z,14.40
2022-09-28T17:46:25.254Z,14.35
2022-09-28T17:48:52.049Z,14.50
2022-09-28T17:51:18.499Z,14.60
2022-09-28T17:53:44.975Z,15.08
2022-09-28T17:56:11.431Z,15.14
2022-09-28T17:58:37.874Z,15.03
2022-09-28T18:01:04.406Z,15.09
2022-09-28T18:03:31.046Z,15.44
2022-09-28T18:06:11.615Z,14.99
2022-09-28T18:08:38.100Z,15.21
2022-09-28T18:11:05.100Z,15.61
2022-09-28T18:13:31.550Z,15.29
2022-09-28T18:15:58.192Z,14.72
2022-09-28T18:18:24.814Z,14.17
2022-09-28T18:20:51.934Z,13.82
2022-09-28T18:23:19.456Z,13.46
2022-09-28T18:25:46.790Z,13.42
2022-09-28T18:28:14.097Z,13.45
2022-09-28T18:30:43.258Z,13.67
2022-09-28T18:33:11.723Z,13.67
2022-09-28T18:35:38.778Z,13.38
2022-09-28T18:38:06.643Z,13.35
2022-09-28T18:40:36.202Z,13.00
2022-09-28T18:43:03.142Z,12.93
2022-09-28T18:45:29.812Z,12.81
2022-09-28T18:47:57.355Z,12.72
2022-09-28T18:50:23.896Z,12.65
2022-09-28T18:52:50.357Z,12.61
2022-09-28T18:55:16.839Z,12.40
2022-09-28T18:57:43.308Z,12.48
2022-09-28T19:00:11.582Z,12.72
2022-09-28T19:02:38.283Z,13.00
2022-09-28T19:05:06.092Z,13.26
2022-09-28T19:07:33.648Z,13.51
2022-09-28T19:10:00.156Z,13.86
2022-09-28T19:12:26.700Z,13.78
2022-09-28T19:14:53.160Z,14.15
2022-09-28T19:17:19.633Z,14.22
2022-09-28T19:19:46.095Z,14.34
2022-09-28T19:22:15.821Z,14.12
2022-09-28T19:24:42.274Z,14.42
2022-09-28T19:27:08.710Z,14.21
2022-09-28T19:29:35.146Z,14.23
2022-09-28T19:32:04.534Z,14.30
2022-09-28T19:34:31.092Z,14.63
2022-09-28T19:36:57.521Z,14.99
2022-09-28T19:39:24.131Z,14.95
2022-09-28T19:41:50.752Z,15.04
2022-09-28T19:44:20.221Z,14.48
2022-09-28T19:46:46.813Z,14.45
2022-09-28T19:49:15.620Z,14.56
2022-09-28T19:52:01.581Z,14.58
2022-09-28T19:54:32.017Z,14.37
2022-09-28T19:57:00.806Z,14.33
2022-09-28T19:59:30.201Z,14.60
2022-09-28T20:01:56.687Z,14.71
2022-09-28T20:04:23.142Z,14.77
2022-09-28T20:06:49.618Z,14.79
2022-09-28T20:09:16.143Z,14.77
2022-09-28T20:11:42.578Z,14.68
2022-09-28T20:14:09.837Z,14.55
2022-09-28T20:16:36.619Z,14.72
2022-09-28T20:19:04.021Z,14.91
2022-09-28T20:21:30.851Z,15.00
2022-09-28T20:23:57.402Z,14.87
2022-09-28T20:26:25.952Z,14.73
2022-09-28T20:28:53.456Z,14.13
2022-09-28T20:31:24.722Z,14.30
2022-09-28T20:33:52.224Z,14.46
2022-09-28T20:36:23.911Z,14.70
2022-09-28T20:38:54.818Z,14.53
2022-09-28T20:41:22.938Z,14.52
2022-09-28T20:43:55.443Z,14.33
2022-09-28T20:46:23.180Z,14.60
2022-09-28T20:48:50.392Z,14.91
2022-09-28T20:51:19.492Z,15.17
2022-09-28T20:53:54.868Z,15.35
2022-09-28T20:56:33.231Z,15.47
2022-09-28T20:58:59.929Z,15.64
2022-09-28T21:01:28.152Z,15.70
2022-09-28T21:03:57.340Z,15.19
2022-09-28T21:06:27.076Z,15.51
2022-09-28T21:08:53.698Z,15.53
2022-09-28T21:11:25.137Z,14.90
2022-09-28T21:13:53.756Z,14.87
2022-09-28T21:16:20.419Z,15.03
2022-09-28T21:18:47.791Z,15.29
2022-09-28T21:21:16.911Z,15.57
2022-09-28T21:23:43.783Z,15.52
2022-09-28T21:26:13.308Z,15.66
2022-09-28T21:28:40.337Z,15.82
2022-09-28T21:31:09.978Z,15.95
2022-09-28T21:33:36.556Z,15.85
2022-09-28T21:36:05.679Z,16.04
2022-09-28T21:38:32.705Z,16.12
2022-09-28T21:41:00.145Z,16.22
2022-09-28T21:43:28.706Z,16.18
2022-09-28T21:45:56.782Z,16.23
2022-09-28T21:48:25.614Z,16.19
2022-09-28T21:51:07.187Z,15.83
2022-09-28T21:53:36.717Z,15.71
2022-09-28T21:56:06.440Z,15.44
2022-09-28T21:58:34.968Z,15.23
2022-09-28T22:01:08.761Z,15.50
2022-09-28T22:03:36.783Z,15.30
2022-09-28T22:06:04.802Z,15.53
2022-09-28T22:08:31.983Z,14.96
2022-09-28T22:11:09.264Z,14.56
2022-09-28T22:13:40.358Z,14.91
2022-09-28T22:16:08.156Z,14.54
2022-09-28T22:18:34.907Z,14.56
2022-09-28T22:21:05.914Z,14.58
2022-09-28T22:23:33.820Z,14.79
2022-09-28T22:26:14.755Z,14.68
2022-09-28T22:28:48.080Z,14.74
2022-09-28T22:31:15.788Z,14.53
2022-09-28T22:33:42.479Z,14.47
2022-09-28T22:36:08.971Z,14.67
2022-09-28T22:38:35.680Z,14.49
2022-09-28T22:41:02.215Z,14.94
2022-09-28T22:43:29.130Z,15.08
2022-09-28T22:46:08.320Z,14.77
2022-09-28T22:48:35.317Z,15.08
2022-09-28T22:51:03.173Z,15.23
2022-09-28T22:53:30.015Z,14.84
2022-09-28T22:55:58.503Z,14.55
2022-09-28T22:58:25.006Z,14.71
2022-09-28T23:00:51.492Z,14.76
2022-09-28T23:03:18.061Z,15.03
2022-09-28T23:05:57.164Z,14.91
2022-09-28T23:08:24.219Z,14.70
2022-09-28T23:10:51.606Z,14.70
2022-09-28T23:13:18.481Z,14.78
2022-09-28T23:16:12.512Z,14.91
2022-09-28T23:18:40.158Z,14.96
2022-09-28T23:21:10.815Z,14.45
2022-09-28T23:23:37.485Z,14.69
2022-09-28T23:26:19.183Z,14.82
2022-09-28T23:28:46.492Z,14.80
2022-09-28T23:31:19.311Z,14.58
2022-09-28T23:33:46.119Z,15.00
2022-09-28T23:36:12.588Z,14.68
2022-09-28T23:38:39.759Z,14.85
2022-09-28T23:41:06.715Z,14.94
2022-09-28T23:43:34.143Z,14.46
2022-09-28T23:46:00.615Z,14.48
2022-09-28T23:48:27.214Z,13.94
2022-09-28T23:50:53.654Z,13.85
2022-09-28T23:53:20.178Z,14.21
2022-09-28T23:55:46.649Z,14.35
2022-09-28T23:58:13.094Z,14.60
